Idalia, Colorado
Current Conditions -  °F | °C
As of 11:15 PM on Tuesday 27 Jan 2015 (Local Time) from KSYF Reporting Station
Clear Clear  
Wind Chill: 36°   Ceiling: Unl
Heat Index: 40°   Visibility: 10mi
Dew Point: 29°   Wind: 5mph
Humidity: 66%   Direction: 210°SSW
Pressure: 29.9"   Gusts: NA
Location:  39.7°N, 102.29°W
Report Text: KSYF 280615Z AUTO 21004KT 10SM CLR 04/M02 A2990 RMK AO2 T00421016
Loading
Personal Weather Stations






























Interactive Weather Map New forecast layout! Learn more

10-Day Weather Forecast

Advertisements
Track Severe Weather on mobile